sensor_id;sensor_type;location;lat;lon;timestamp;temperature;humidity
78649;DHT22;67962;47.310;9.642;2023-04-01T00:00:23;10.90;60.30
78649;DHT22;67962;47.310;9.642;2023-04-01T00:02:49;10.70;60.50
78649;DHT22;67962;47.310;9.642;2023-04-01T00:05:15;10.70;60.50
78649;DHT22;67962;47.310;9.642;2023-04-01T00:07:42;10.70;60.70
78649;DHT22;67962;47.310;9.642;2023-04-01T00:10:10;10.70;61.20
78649;DHT22;67962;47.310;9.642;2023-04-01T00:12:37;10.80;60.60
78649;DHT22;67962;47.310;9.642;2023-04-01T00:15:06;10.90;60.60
78649;DHT22;67962;47.310;9.642;2023-04-01T00:17:32;10.90;60.10
78649;DHT22;67962;47.310;9.642;2023-04-01T00:19:58;10.90;60.30
78649;DHT22;67962;47.310;9.642;2023-04-01T00:22:25;10.90;61.00
78649;DHT22;67962;47.310;9.642;2023-04-01T00:24:52;10.90;61.50
78649;DHT22;67962;47.310;9.642;2023-04-01T00:27:18;10.90;61.80
78649;DHT22;67962;47.310;9.642;2023-04-01T00:29:47;10.80;62.00
78649;DHT22;67962;47.310;9.642;2023-04-01T00:32:14;10.90;62.50
78649;DHT22;67962;47.310;9.642;2023-04-01T00:34:40;11.00;62.00
78649;DHT22;67962;47.310;9.642;2023-04-01T00:37:06;10.90;61.90
78649;DHT22;67962;47.310;9.642;2023-04-01T00:39:33;10.90;61.70
78649;DHT22;67962;47.310;9.642;2023-04-01T00:42:00;11.00;61.70
78649;DHT22;67962;47.310;9.642;2023-04-01T00:44:30;11.10;61.90
78649;DHT22;67962;47.310;9.642;2023-04-01T00:46:56;11.00;61.90
78649;DHT22;67962;47.310;9.642;2023-04-01T00:49:25;10.90;61.30
78649;DHT22;67962;47.310;9.642;2023-04-01T00:51:54;10.90;61.50
78649;DHT22;67962;47.310;9.642;2023-04-01T00:54:22;10.70;61.70
78649;DHT22;67962;47.310;9.642;2023-04-01T00:57:01;10.70;62.10
78649;DHT22;67962;47.310;9.642;2023-04-01T00:59:32;10.80;62.50
78649;DHT22;67962;47.310;9.642;2023-04-01T01:02:00;10.70;62.80
78649;DHT22;67962;47.310;9.642;2023-04-01T01:04:29;10.70;62.80
78649;DHT22;67962;47.310;9.642;2023-04-01T01:37:17;10.50;64.90
78649;DHT22;67962;47.310;9.642;2023-04-01T01:39:53;10.60;65.00
78649;DHT22;67962;47.310;9.642;2023-04-01T01:42:20;10.50;64.60
78649;DHT22;67962;47.310;9.642;2023-04-01T01:44:49;10.40;64.20
78649;DHT22;67962;47.310;9.642;2023-04-01T01:47:17;10.50;64.60
78649;DHT22;67962;47.310;9.642;2023-04-01T01:49:45;10.50;65.10
78649;DHT22;67962;47.310;9.642;2023-04-01T01:52:12;10.50;64.60
78649;DHT22;67962;47.310;9.642;2023-04-01T01:54:51;10.50;64.60
78649;DHT22;67962;47.310;9.642;2023-04-01T01:57:20;10.50;64.60
78649;DHT22;67962;47.310;9.642;2023-04-01T01:59:48;10.50;64.40
78649;DHT22;67962;47.310;9.642;2023-04-01T02:02:15;10.60;65.30
78649;DHT22;67962;47.310;9.642;2023-04-01T02:04:43;10.50;65.50
78649;DHT22;67962;47.310;9.642;2023-04-01T02:07:18;10.50;66.00
78649;DHT22;67962;47.310;9.642;2023-04-01T02:09:46;10.50;65.60
78649;DHT22;67962;47.310;9.642;2023-04-01T02:12:13;10.40;65.90
78649;DHT22;67962;47.310;9.642;2023-04-01T02:14:45;10.40;65.70
78649;DHT22;67962;47.310;9.642;2023-04-01T02:17:17;10.40;65.20
78649;DHT22;67962;47.310;9.642;2023-04-01T02:22:29;10.50;64.60
78649;DHT22;67962;47.310;9.642;2023-04-01T02:24:59;10.40;65.00
78649;DHT22;67962;47.310;9.642;2023-04-01T02:27:26;10.40;64.50
78649;DHT22;67962;47.310;9.642;2023-04-01T02:29:52;10.50;64.50
78649;DHT22;67962;47.310;9.642;2023-04-01T02:32:19;10.50;64.70
78649;DHT22;67962;47.310;9.642;2023-04-01T02:34:46;10.50;64.20
78649;DHT22;67962;47.310;9.642;2023-04-01T02:37:13;10.50;64.10
78649;DHT22;67962;47.310;9.642;2023-04-01T02:39:39;10.50;63.60
78649;DHT22;67962;47.310;9.642;2023-04-01T02:42:05;10.50;64.00
78649;DHT22;67962;47.310;9.642;2023-04-01T02:44:32;10.50;63.60
78649;DHT22;67962;47.310;9.642;2023-04-01T02:46:57;10.50;63.00
78649;DHT22;67962;47.310;9.642;2023-04-01T02:49:23;10.60;62.60
78649;DHT22;67962;47.310;9.642;2023-04-01T02:51:49;10.70;62.20
78649;DHT22;67962;47.310;9.642;2023-04-01T02:54:14;10.60;61.80
78649;DHT22;67962;47.310;9.642;2023-04-01T02:56:40;10.60;61.50
78649;DHT22;67962;47.310;9.642;2023-04-01T02:59:06;10.70;61.60
78649;DHT22;67962;47.310;9.642;2023-04-01T03:01:32;10.60;61.60
78649;DHT22;67962;47.310;9.642;2023-04-01T03:03:58;10.60;62.10
78649;DHT22;67962;47.310;9.642;2023-04-01T03:06:23;10.70;62.20
78649;DHT22;67962;47.310;9.642;2023-04-01T03:08:49;10.70;62.00
78649;DHT22;67962;47.310;9.642;2023-04-01T03:11:15;10.70;61.70
78649;DHT22;67962;47.310;9.642;2023-04-01T03:13:41;10.80;61.30
78649;DHT22;67962;47.310;9.642;2023-04-01T03:16:06;10.80;61.10
78649;DHT22;67962;47.310;9.642;2023-04-01T03:18:32;10.80;61.70
78649;DHT22;67962;47.310;9.642;2023-04-01T03:21:22;10.80;62.00
78649;DHT22;67962;47.310;9.642;2023-04-01T03:23:48;10.70;62.50
78649;DHT22;67962;47.310;9.642;2023-04-01T03:26:14;10.60;63.30
78649;DHT22;67962;47.310;9.642;2023-04-01T03:28:40;10.50;63.20
78649;DHT22;67962;47.310;9.642;2023-04-01T03:31:06;10.50;63.20
78649;DHT22;67962;47.310;9.642;2023-04-01T03:33:32;10.50;63.50
78649;DHT22;67962;47.310;9.642;2023-04-01T03:35:58;10.40;63.50
78649;DHT22;67962;47.310;9.642;2023-04-01T03:38:24;10.30;63.70
78649;DHT22;67962;47.310;9.642;2023-04-01T03:40:49;10.30;63.90
78649;DHT22;67962;47.310;9.642;2023-04-01T03:43:15;10.30;63.80
78649;DHT22;67962;47.310;9.642;2023-04-01T03:45:49;10.40;64.00
78649;DHT22;67962;47.310;9.642;2023-04-01T03:48:15;10.50;63.90
78649;DHT22;67962;47.310;9.642;2023-04-01T03:50:41;10.50;64.30
78649;DHT22;67962;47.310;9.642;2023-04-01T03:53:07;10.50;64.60
78649;DHT22;67962;47.310;9.642;2023-04-01T03:55:33;10.40;64.60
78649;DHT22;67962;47.310;9.642;2023-04-01T03:58:00;10.20;64.50
78649;DHT22;67962;47.310;9.642;2023-04-01T04:00:30;10.10;65.00
78649;DHT22;67962;47.310;9.642;2023-04-01T04:02:56;10.20;65.00
78649;DHT22;67962;47.310;9.642;2023-04-01T04:05:23;10.20;65.00
78649;DHT22;67962;47.310;9.642;2023-04-01T04:07:49;10.20;65.60
78649;DHT22;67962;47.310;9.642;2023-04-01T04:10:15;10.20;65.50
78649;DHT22;67962;47.310;9.642;2023-04-01T04:12:40;10.20;65.40
78649;DHT22;67962;47.310;9.642;2023-04-01T04:15:07;10.20;65.20
78649;DHT22;67962;47.310;9.642;2023-04-01T04:17:33;10.10;65.70
78649;DHT22;67962;47.310;9.642;2023-04-01T04:19:59;10.10;66.00
78649;DHT22;67962;47.310;9.642;2023-04-01T04:22:25;10.10;65.80
78649;DHT22;67962;47.310;9.642;2023-04-01T04:24:51;10.20;65.60
78649;DHT22;67962;47.310;9.642;2023-04-01T04:27:16;10.30;65.50
78649;DHT22;67962;47.310;9.642;2023-04-01T04:29:42;10.30;65.20
78649;DHT22;67962;47.310;9.642;2023-04-01T04:32:08;10.30;65.20
78649;DHT22;67962;47.310;9.642;2023-04-01T04:34:34;10.30;65.00
78649;DHT22;67962;47.310;9.642;2023-04-01T04:37:00;10.20;65.00
78649;DHT22;67962;47.310;9.642;2023-04-01T04:39:25;10.20;65.10
78649;DHT22;67962;47.310;9.642;2023-04-01T04:41:51;10.20;64.70
78649;DHT22;67962;47.310;9.642;2023-04-01T04:44:17;10.20;64.40
78649;DHT22;67962;47.310;9.642;2023-04-01T04:46:43;10.20;64.00
78649;DHT22;67962;47.310;9.642;2023-04-01T04:49:08;10.30;64.40
78649;DHT22;67962;47.310;9.642;2023-04-01T04:51:34;10.30;64.30
78649;DHT22;67962;47.310;9.642;2023-04-01T04:54:02;10.20;64.80
78649;DHT22;67962;47.310;9.642;2023-04-01T04:56:28;10.20;65.30
78649;DHT22;67962;47.310;9.642;2023-04-01T04:58:54;10.20;65.60
78649;DHT22;67962;47.310;9.642;2023-04-01T05:01:20;10.10;65.60
78649;DHT22;67962;47.310;9.642;2023-04-01T05:03:46;10.00;65.90
78649;DHT22;67962;47.310;9.642;2023-04-01T05:06:13;10.00;65.30
78649;DHT22;67962;47.310;9.642;2023-04-01T05:08:40;10.00;65.20
78649;DHT22;67962;47.310;9.642;2023-04-01T05:11:10;10.00;65.20
78649;DHT22;67962;47.310;9.642;2023-04-01T05:13:36;10.00;65.30
78649;DHT22;67962;47.310;9.642;2023-04-01T05:16:02;10.10;65.20
78649;DHT22;67962;47.310;9.642;2023-04-01T05:18:28;10.10;65.00
78649;DHT22;67962;47.310;9.642;2023-04-01T05:20:54;10.20;65.00
78649;DHT22;67962;47.310;9.642;2023-04-01T05:23:23;10.20;64.40
78649;DHT22;67962;47.310;9.642;2023-04-01T05:25:49;10.20;64.70
78649;DHT22;67962;47.310;9.642;2023-04-01T05:28:15;10.20;65.30
78649;DHT22;67962;47.310;9.642;2023-04-01T05:30:42;10.30;65.60
78649;DHT22;67962;47.310;9.642;2023-04-01T05:33:09;10.20;65.10
78649;DHT22;67962;47.310;9.642;2023-04-01T05:35:36;10.30;65.10
78649;DHT22;67962;47.310;9.642;2023-04-01T05:38:02;10.30;64.90
78649;DHT22;67962;47.310;9.642;2023-04-01T05:40:29;10.40;64.50
78649;DHT22;67962;47.310;9.642;2023-04-01T05:42:54;10.30;64.90
78649;DHT22;67962;47.310;9.642;2023-04-01T05:45:20;10.30;65.50
78649;DHT22;67962;47.310;9.642;2023-04-01T05:47:46;10.20;65.80
78649;DHT22;67962;47.310;9.642;2023-04-01T05:50:12;10.30;66.10
78649;DHT22;67962;47.310;9.642;2023-04-01T05:52:38;10.20;66.20
78649;DHT22;67962;47.310;9.642;2023-04-01T05:55:04;10.10;66.40
78649;DHT22;67962;47.310;9.642;2023-04-01T05:57:30;10.10;66.80
78649;DHT22;67962;47.310;9.642;2023-04-01T05:59:56;10.20;66.90
78649;DHT22;67962;47.310;9.642;2023-04-01T06:02:22;10.20;66.40
78649;DHT22;67962;47.310;9.642;2023-04-01T06:04:48;10.20;65.90
78649;DHT22;67962;47.310;9.642;2023-04-01T06:07:16;10.30;66.00
78649;DHT22;67962;47.310;9.642;2023-04-01T06:09:43;10.40;66.30
78649;DHT22;67962;47.310;9.642;2023-04-01T06:12:38;10.40;65.80
78649;DHT22;67962;47.310;9.642;2023-04-01T06:15:29;10.40;65.70
78649;DHT22;67962;47.310;9.642;2023-04-01T06:33:08;10.50;65.30
78649;DHT22;67962;47.310;9.642;2023-04-01T06:41:39;10.70;64.80
78649;DHT22;67962;47.310;9.642;2023-04-01T06:44:55;10.70;64.60
78649;DHT22;67962;47.310;9.642;2023-04-01T06:50:21;10.80;64.10
78649;DHT22;67962;47.310;9.642;2023-04-01T06:53:10;10.90;65.30
78649;DHT22;67962;47.310;9.642;2023-04-01T06:55:57;10.90;64.60
78649;DHT22;67962;47.310;9.642;2023-04-01T06:58:35;11.00;62.00
78649;DHT22;67962;47.310;9.642;2023-04-01T07:01:06;10.90;59.40
78649;DHT22;67962;47.310;9.642;2023-04-01T07:03:44;10.90;59.30
78649;DHT22;67962;47.310;9.642;2023-04-01T07:06:23;10.90;59.40
78649;DHT22;67962;47.310;9.642;2023-04-01T07:08:51;11.00;57.90
78649;DHT22;67962;47.310;9.642;2023-04-01T07:11:31;11.20;57.60
78649;DHT22;67962;47.310;9.642;2023-04-01T07:16:54;11.70;59.00
78649;DHT22;67962;47.310;9.642;2023-04-01T07:19:45;11.90;59.20
78649;DHT22;67962;47.310;9.642;2023-04-01T07:22:19;11.90;61.10
78649;DHT22;67962;47.310;9.642;2023-04-01T07:24:47;11.90;61.40
78649;DHT22;67962;47.310;9.642;2023-04-01T07:27:14;12.00;60.90
78649;DHT22;67962;47.310;9.642;2023-04-01T07:29:40;12.10;61.30
78649;DHT22;67962;47.310;9.642;2023-04-01T07:32:32;12.20;61.60
78649;DHT22;67962;47.310;9.642;2023-04-01T07:40:19;12.00;63.00
78649;DHT22;67962;47.310;9.642;2023-04-01T07:45:47;11.90;62.00
78649;DHT22;67962;47.310;9.642;2023-04-01T07:51:33;11.70;62.70
78649;DHT22;67962;47.310;9.642;2023-04-01T07:54:07;11.60;62.00
78649;DHT22;67962;47.310;9.642;2023-04-01T08:09:48;11.90;61.30
78649;DHT22;67962;47.310;9.642;2023-04-01T08:12:42;11.80;61.80
78649;DHT22;67962;47.310;9.642;2023-04-01T08:18:26;12.00;61.80
78649;DHT22;67962;47.310;9.642;2023-04-01T08:20:56;12.10;61.20
78649;DHT22;67962;47.310;9.642;2023-04-01T08:23:27;12.10;61.20
78649;DHT22;67962;47.310;9.642;2023-04-01T08:26:39;12.10;61.40
78649;DHT22;67962;47.310;9.642;2023-04-01T08:29:16;12.10;62.00
78649;DHT22;67962;47.310;9.642;2023-04-01T08:34:28;11.90;63.20
78649;DHT22;67962;47.310;9.642;2023-04-01T08:37:07;11.80;62.80
78649;DHT22;67962;47.310;9.642;2023-04-01T08:39:38;11.80;62.50
78649;DHT22;67962;47.310;9.642;2023-04-01T08:45:22;11.80;62.70
78649;DHT22;67962;47.310;9.642;2023-04-01T08:55:37;11.90;62.50
78649;DHT22;67962;47.310;9.642;2023-04-01T09:03:56;12.20;61.50
78649;DHT22;67962;47.310;9.642;2023-04-01T09:12:08;12.50;61.40
78649;DHT22;67962;47.310;9.642;2023-04-01T09:35:06;12.80;58.60
78649;DHT22;67962;47.310;9.642;2023-04-01T09:48:36;12.70;60.40
78649;DHT22;67962;47.310;9.642;2023-04-01T09:51:23;12.70;60.40
78649;DHT22;67962;47.310;9.642;2023-04-01T09:57:09;12.60;61.00
78649;DHT22;67962;47.310;9.642;2023-04-01T10:02:41;12.90;59.50
78649;DHT22;67962;47.310;9.642;2023-04-01T10:15:59;13.00;59.60
78649;DHT22;67962;47.310;9.642;2023-04-01T10:52:07;13.00;55.50
78649;DHT22;67962;47.310;9.642;2023-04-01T10:54:28;13.00;55.90
78649;DHT22;67962;47.310;9.642;2023-04-01T11:33:31;13.20;52.10
78649;DHT22;67962;47.310;9.642;2023-04-01T11:39:14;13.30;53.60
78649;DHT22;67962;47.310;9.642;2023-04-01T11:44:26;13.50;52.70
78649;DHT22;67962;47.310;9.642;2023-04-01T11:57:43;13.90;51.50
78649;DHT22;67962;47.310;9.642;2023-04-01T12:08:51;13.80;48.60
78649;DHT22;67962;47.310;9.642;2023-04-01T12:14:27;13.70;51.00
78649;DHT22;67962;47.310;9.642;2023-04-01T12:22:54;13.80;52.60
78649;DHT22;67962;47.310;9.642;2023-04-01T12:28:18;14.00;50.00
78649;DHT22;67962;47.310;9.642;2023-04-01T12:37:08;14.10;51.00
78649;DHT22;67962;47.310;9.642;2023-04-01T12:39:57;14.10;51.10
78649;DHT22;67962;47.310;9.642;2023-04-01T12:55:49;13.90;52.40
78649;DHT22;67962;47.310;9.642;2023-04-01T13:15:01;14.20;48.70
78649;DHT22;67962;47.310;9.642;2023-04-01T13:20:27;14.40;49.30
78649;DHT22;67962;47.310;9.642;2023-04-01T13:37:22;14.90;49.90
78649;DHT22;67962;47.310;9.642;2023-04-01T13:40:39;15.00;47.80
78649;DHT22;67962;47.310;9.642;2023-04-01T13:51:45;15.00;48.30
78649;DHT22;67962;47.310;9.642;2023-04-01T13:54:36;15.00;49.80
78649;DHT22;67962;47.310;9.642;2023-04-01T13:57:40;15.00;49.60
78649;DHT22;67962;47.310;9.642;2023-04-01T14:03:44;14.80;49.80
78649;DHT22;67962;47.310;9.642;2023-04-01T14:09:38;14.90;49.70
78649;DHT22;67962;47.310;9.642;2023-04-01T14:12:27;14.90;49.90
78649;DHT22;67962;47.310;9.642;2023-04-01T14:18:08;15.10;49.60
78649;DHT22;67962;47.310;9.642;2023-04-01T14:29:47;15.10;48.10
78649;DHT22;67962;47.310;9.642;2023-04-01T14:35:22;15.20;47.80
78649;DHT22;67962;47.310;9.642;2023-04-01T14:40:54;15.20;48.60
78649;DHT22;67962;47.310;9.642;2023-04-01T14:49:35;15.20;47.70
78649;DHT22;67962;47.310;9.642;2023-04-01T14:54:47;14.90;47.60
78649;DHT22;67962;47.310;9.642;2023-04-01T14:57:26;14.90;47.70
78649;DHT22;67962;47.310;9.642;2023-04-01T15:00:17;14.80;48.20
78649;DHT22;67962;47.310;9.642;2023-04-01T15:02:56;14.90;48.40
78649;DHT22;67962;47.310;9.642;2023-04-01T15:08:26;14.90;48.40
78649;DHT22;67962;47.310;9.642;2023-04-01T15:39:24;14.60;50.40
78649;DHT22;67962;47.310;9.642;2023-04-01T15:42:23;14.60;51.90
78649;DHT22;67962;47.310;9.642;2023-04-01T15:47:45;14.50;51.30
78649;DHT22;67962;47.310;9.642;2023-04-01T15:55:56;14.40;50.80
78649;DHT22;67962;47.310;9.642;2023-04-01T16:01:44;14.10;51.80
78649;DHT22;67962;47.310;9.642;2023-04-01T16:07:11;14.00;51.20
78649;DHT22;67962;47.310;9.642;2023-04-01T16:12:58;14.10;52.80
78649;DHT22;67962;47.310;9.642;2023-04-01T16:15:43;14.10;52.70
78649;DHT22;67962;47.310;9.642;2023-04-01T16:24:03;13.50;54.20
78649;DHT22;67962;47.310;9.642;2023-04-01T16:26:36;13.10;56.70
78649;DHT22;67962;47.310;9.642;2023-04-01T16:35:04;12.50;60.30
78649;DHT22;67962;47.310;9.642;2023-04-01T16:43:28;12.50;61.80
78649;DHT22;67962;47.310;9.642;2023-04-01T17:00:02;12.50;62.00
78649;DHT22;67962;47.310;9.642;2023-04-01T17:02:45;12.50;62.00
78649;DHT22;67962;47.310;9.642;2023-04-01T17:05:13;12.30;61.70
78649;DHT22;67962;47.310;9.642;2023-04-01T17:35:55;11.90;64.90
78649;DHT22;67962;47.310;9.642;2023-04-01T17:41:24;11.90;65.30
78649;DHT22;67962;47.310;9.642;2023-04-01T17:57:51;11.70;65.10
78649;DHT22;67962;47.310;9.642;2023-04-01T18:00:45;11.70;64.70
78649;DHT22;67962;47.310;9.642;2023-04-01T18:06:03;11.60;64.90
78649;DHT22;67962;47.310;9.642;2023-04-01T18:09:00;11.50;65.20
78649;DHT22;67962;47.310;9.642;2023-04-01T18:17:18;11.40;65.70
78649;DHT22;67962;47.310;9.642;2023-04-01T18:23:03;11.20;65.90
78649;DHT22;67962;47.310;9.642;2023-04-01T18:25:53;11.20;66.00
78649;DHT22;67962;47.310;9.642;2023-04-01T18:28:59;11.10;66.20
78649;DHT22;67962;47.310;9.642;2023-04-01T18:31:37;11.10;66.10
78649;DHT22;67962;47.310;9.642;2023-04-01T18:35:02;11.10;66.60
78649;DHT22;67962;47.310;9.642;2023-04-01T18:37:30;11.00;66.90
78649;DHT22;67962;47.310;9.642;2023-04-01T18:40:22;11.10;66.90
78649;DHT22;67962;47.310;9.642;2023-04-01T18:43:09;11.10;66.90
78649;DHT22;67962;47.310;9.642;2023-04-01T18:45:57;11.10;66.00
78649;DHT22;67962;47.310;9.642;2023-04-01T18:51:34;11.10;66.20
78649;DHT22;67962;47.310;9.642;2023-04-01T18:56:43;11.30;66.00
78649;DHT22;67962;47.310;9.642;2023-04-01T19:04:33;11.20;65.40
78649;DHT22;67962;47.310;9.642;2023-04-01T19:10:17;11.20;65.40
78649;DHT22;67962;47.310;9.642;2023-04-01T19:23:31;11.20;65.10
78649;DHT22;67962;47.310;9.642;2023-04-01T19:26:05;11.10;65.20
78649;DHT22;67962;47.310;9.642;2023-04-01T19:37:08;10.90;66.10
78649;DHT22;67962;47.310;9.642;2023-04-01T19:45:43;10.60;67.30
78649;DHT22;67962;47.310;9.642;2023-04-01T19:53:51;10.70;67.30
78649;DHT22;67962;47.310;9.642;2023-04-01T19:56:23;10.60;67.60
78649;DHT22;67962;47.310;9.642;2023-04-01T20:04:28;10.20;68.40
78649;DHT22;67962;47.310;9.642;2023-04-01T20:15:36;10.00;69.40
78649;DHT22;67962;47.310;9.642;2023-04-01T20:27:25;10.10;68.90
78649;DHT22;67962;47.310;9.642;2023-04-01T20:40:51;10.30;69.00
78649;DHT22;67962;47.310;9.642;2023-04-01T20:44:28;10.20;69.20
78649;DHT22;67962;47.310;9.642;2023-04-01T21:00:02;10.20;69.50
78649;DHT22;67962;47.310;9.642;2023-04-01T21:02:57;10.30;69.60
78649;DHT22;67962;47.310;9.642;2023-04-01T21:13:36;10.20;69.80
78649;DHT22;67962;47.310;9.642;2023-04-01T21:16:25;10.20;69.60
78649;DHT22;67962;47.310;9.642;2023-04-01T21:19:12;10.30;69.30
78649;DHT22;67962;47.310;9.642;2023-04-01T21:24:39;10.30;69.40
78649;DHT22;67962;47.310;9.642;2023-04-01T21:41:34;10.40;68.40
78649;DHT22;67962;47.310;9.642;2023-04-01T22:02:25;10.20;69.30
78649;DHT22;67962;47.310;9.642;2023-04-01T22:05:17;10.30;69.10
78649;DHT22;67962;47.310;9.642;2023-04-01T22:10:48;10.10;69.60
78649;DHT22;67962;47.310;9.642;2023-04-01T22:13:26;10.10;69.70
78649;DHT22;67962;47.310;9.642;2023-04-01T22:19:10;10.00;70.30
78649;DHT22;67962;47.310;9.642;2023-04-01T22:29:38;10.10;69.50
78649;DHT22;67962;47.310;9.642;2023-04-01T22:32:14;10.10;69.30
78649;DHT22;67962;47.310;9.642;2023-04-01T22:40:51;10.10;69.20
78649;DHT22;67962;47.310;9.642;2023-04-01T22:49:04;11.00;70.50
78649;DHT22;67962;47.310;9.642;2023-04-01T22:54:34;11.00;68.30
78649;DHT22;67962;47.310;9.642;2023-04-01T23:05:26;11.00;68.30
78649;DHT22;67962;47.310;9.642;2023-04-01T23:10:42;11.10;68.10
78649;DHT22;67962;47.310;9.642;2023-04-01T23:13:18;11.20;68.00
78649;DHT22;67962;47.310;9.642;2023-04-01T23:15:46;11.20;67.70
78649;DHT22;67962;47.310;9.642;2023-04-01T23:18:22;11.00;67.50
78649;DHT22;67962;47.310;9.642;2023-04-01T23:24:01;11.00;66.40
78649;DHT22;67962;47.310;9.642;2023-04-01T23:26:36;10.70;67.30
78649;DHT22;67962;47.310;9.642;2023-04-01T23:29:04;10.70;67.90
78649;DHT22;67962;47.310;9.642;2023-04-01T23:31:40;10.70;67.90
78649;DHT22;67962;47.310;9.642;2023-04-01T23:36:47;10.70;67.30
78649;DHT22;67962;47.310;9.642;2023-04-01T23:39:26;10.80;67.20
78649;DHT22;67962;47.310;9.642;2023-04-01T23:41:59;10.80;67.40
78649;DHT22;67962;47.310;9.642;2023-04-01T23:44:27;10.70;67.20
78649;DHT22;67962;47.310;9.642;2023-04-01T23:46:54;10.60;67.60
78649;DHT22;67962;47.310;9.642;2023-04-01T23:49:33;10.70;68.90
78649;DHT22;67962;47.310;9.642;2023-04-01T23:57:23;10.60;67.40
